Terminal Aerodrome Forecast
Issued by NWS

Home | Current Version | Previous Version | Graphics & Text | Print | Product List | Glossary On
Versions: 1 2 3 4 5 6 7 8 9 10 11 12 13 14 15 16 17 18 19 20 21 22 23 24 25 26 27 28 29 30 31 32 33 34 35 36 37 38
000
FTUS43 KGRB 251733
TAFATW
TAF
KATW 251733Z 2518/2618 04009G14KT P6SM SCT030
      TEMPO 2518/2520 BKN025
     FM252000 05006KT P6SM SCT040
     FM260100 VRB03KT P6SM SCT150
     FM260800 00000KT 3SM BR SCT110
      TEMPO 2608/2612 1SM BR
     FM261300 14003KT P6SM BKN080=

USA.gov is the U.S. government's official web portal to all federal, state and local government web resources and services.